createdAt,value
2017-09-03T00:00:25.531Z,9.33
2017-09-03T00:02:53.007Z,9.87
2017-09-03T00:05:20.535Z,9.50
2017-09-03T00:07:48.030Z,9.33
2017-09-03T00:10:15.505Z,8.80
2017-09-03T00:12:42.987Z,8.30
2017-09-03T00:15:10.467Z,9.37
2017-09-03T00:17:37.968Z,9.07
2017-09-03T00:20:05.449Z,9.53
2017-09-03T00:22:32.922Z,8.20
2017-09-03T00:25:00.411Z,9.10
2017-09-03T00:27:27.883Z,9.20
2017-09-03T00:29:55.376Z,9.43
2017-09-03T00:32:23.107Z,8.70
2017-09-03T00:34:50.608Z,9.37
2017-09-03T00:37:18.083Z,8.50
2017-09-03T00:39:45.612Z,8.77
2017-09-03T00:42:13.116Z,10.10
2017-09-03T00:44:40.597Z,9.67
2017-09-03T00:47:08.083Z,8.60
2017-09-03T00:49:35.628Z,8.90
2017-09-03T00:52:03.120Z,9.00
2017-09-03T00:54:30.596Z,10.07
2017-09-03T00:56:58.076Z,10.40
2017-09-03T00:59:25.565Z,10.20
2017-09-03T01:01:53.044Z,10.00
2017-09-03T01:04:20.532Z,10.97
2017-09-03T01:06:48.008Z,10.67
2017-09-03T01:09:15.503Z,10.67
2017-09-03T01:11:42.977Z,10.03
2017-09-03T01:14:10.465Z,10.00
2017-09-03T01:16:37.951Z,9.00
2017-09-03T01:19:05.431Z,10.10
2017-09-03T01:21:32.925Z,9.77
2017-09-03T01:24:00.404Z,10.90
2017-09-03T01:26:27.972Z,10.33
2017-09-03T01:28:55.453Z,10.80
2017-09-03T01:31:22.919Z,9.60
2017-09-03T01:33:50.416Z,10.00
2017-09-03T01:36:17.895Z,11.17
2017-09-03T01:38:45.393Z,11.87
2017-09-03T01:41:12.912Z,11.53
2017-09-03T01:43:40.413Z,11.40
2017-09-03T01:46:07.888Z,10.60
2017-09-03T01:48:35.366Z,11.70
2017-09-03T01:51:02.861Z,11.50
2017-09-03T01:53:30.336Z,11.60
2017-09-03T01:55:57.832Z,11.50
2017-09-03T01:58:25.308Z,11.00
2017-09-03T02:00:52.799Z,10.83
2017-09-03T02:03:20.284Z,11.33
2017-09-03T02:05:47.760Z,11.50
2017-09-03T02:08:15.255Z,11.30
2017-09-03T02:10:42.732Z,11.43
2017-09-03T02:13:10.229Z,12.23
2017-09-03T02:15:37.799Z,12.27
2017-09-03T02:18:05.291Z,12.30
2017-09-03T02:20:32.783Z,11.80
2017-09-03T02:23:00.264Z,12.43
2017-09-03T02:25:27.753Z,10.63
2017-09-03T02:27:55.245Z,11.37
2017-09-03T02:30:22.742Z,11.63
2017-09-03T02:32:50.232Z,11.67
2017-09-03T02:35:17.715Z,10.73
2017-09-03T02:37:45.206Z,10.67
2017-09-03T02:40:12.693Z,11.63
2017-09-03T02:42:40.250Z,11.30
2017-09-03T02:45:08.523Z,13.47
2017-09-03T02:47:36.035Z,11.27
2017-09-03T02:50:03.528Z,11.20
2017-09-03T02:52:31.108Z,11.93
2017-09-03T02:54:58.612Z,11.90
2017-09-03T02:57:26.094Z,12.30
2017-09-03T02:59:53.587Z,11.80
2017-09-03T03:02:21.097Z,12.23
2017-09-03T03:04:48.599Z,11.77
2017-09-03T03:07:16.082Z,12.50
2017-09-03T03:09:43.564Z,12.57
2017-09-03T03:12:11.056Z,12.03
2017-09-03T03:14:38.536Z,13.23
2017-09-03T03:17:06.044Z,12.20
2017-09-03T03:19:33.541Z,12.37
2017-09-03T03:22:01.047Z,13.57
2017-09-03T03:24:28.519Z,14.70
2017-09-03T03:26:56.000Z,13.80
2017-09-03T03:29:23.566Z,12.27
2017-09-03T03:31:51.043Z,12.40
2017-09-03T03:34:18.532Z,12.70
2017-09-03T03:36:46.016Z,14.03
2017-09-03T03:39:13.519Z,12.90
2017-09-03T03:41:41.072Z,14.20
2017-09-03T03:44:08.547Z,13.60
2017-09-03T03:46:36.043Z,12.27
2017-09-03T03:49:03.520Z,12.73
2017-09-03T03:51:31.012Z,13.13
2017-09-03T03:53:58.557Z,13.67
2017-09-03T03:56:26.060Z,13.50
2017-09-03T03:58:53.548Z,13.50
2017-09-03T04:01:21.028Z,13.57
2017-09-03T04:03:48.523Z,13.37
2017-09-03T04:06:16.054Z,13.27
2017-09-03T04:08:43.545Z,13.80
2017-09-03T04:11:11.028Z,12.20
2017-09-03T04:13:38.552Z,13.53
2017-09-03T04:16:06.031Z,12.80
2017-09-03T04:18:33.515Z,12.40
2017-09-03T04:21:01.104Z,15.17
2017-09-03T04:23:28.664Z,14.50
2017-09-03T04:25:56.157Z,15.63
2017-09-03T04:28:23.646Z,14.33
2017-09-03T04:30:51.343Z,16.10
2017-09-03T04:33:18.825Z,14.03
2017-09-03T04:35:46.299Z,14.53
2017-09-03T04:38:13.828Z,15.20
2017-09-03T04:40:41.301Z,15.00
2017-09-03T04:43:08.800Z,15.83
2017-09-03T04:45:36.279Z,16.60
2017-09-03T04:48:03.792Z,15.80
2017-09-03T04:50:31.315Z,14.30
2017-09-03T04:52:58.795Z,15.50
2017-09-03T04:55:26.308Z,15.40
2017-09-03T04:57:53.783Z,14.67
2017-09-03T05:00:21.281Z,16.50
2017-09-03T05:09:47.812Z,14.63
2017-09-03T05:12:15.312Z,15.07
2017-09-03T05:14:42.784Z,15.37
2017-09-03T05:17:10.301Z,15.50
2017-09-03T05:19:37.799Z,15.77
2017-09-03T05:22:05.278Z,15.43
2017-09-03T05:24:32.772Z,14.47
2017-09-03T05:27:00.252Z,14.53
2017-09-03T05:29:27.748Z,14.90
2017-09-03T05:31:55.253Z,15.70
2017-09-03T05:34:22.750Z,13.77
2017-09-03T05:36:50.252Z,14.90
2017-09-03T05:39:17.770Z,15.43
2017-09-03T05:41:45.327Z,14.07
2017-09-03T05:44:12.811Z,15.53
2017-09-03T05:46:40.309Z,15.63
2017-09-03T05:49:07.812Z,15.37
2017-09-03T05:51:35.307Z,15.00
2017-09-03T05:54:02.799Z,15.73
2017-09-03T05:56:30.296Z,15.90
2017-09-03T05:58:57.803Z,15.60
2017-09-03T06:01:25.275Z,14.80
2017-09-03T06:03:52.773Z,15.53
2017-09-03T06:06:20.264Z,17.20
2017-09-03T06:08:47.839Z,17.07
2017-09-03T06:11:15.403Z,18.07
2017-09-03T06:13:42.890Z,16.80
2017-09-03T06:16:10.401Z,16.70
2017-09-03T06:18:37.980Z,15.63
2017-09-03T06:21:05.455Z,16.57
2017-09-03T06:23:32.956Z,16.87
2017-09-03T06:26:00.427Z,17.67
2017-09-03T06:28:27.924Z,15.37
2017-09-03T06:30:55.412Z,16.13
2017-09-03T06:33:22.921Z,16.20
2017-09-03T06:35:50.483Z,16.57
2017-09-03T06:38:17.987Z,18.07
2017-09-03T06:40:45.481Z,15.40
2017-09-03T06:43:13.069Z,15.23
2017-09-03T06:45:40.569Z,16.90
2017-09-03T06:48:08.054Z,16.50
2017-09-03T06:50:35.570Z,27.63
2017-09-03T06:53:03.042Z,16.57
2017-09-03T06:55:30.519Z,14.83
2017-09-03T06:57:58.019Z,17.33
2017-09-03T07:00:25.498Z,15.97
2017-09-03T07:02:52.990Z,16.00
2017-09-03T07:05:20.477Z,16.70
2017-09-03T07:07:48.157Z,17.13
2017-09-03T07:10:15.632Z,17.33
2017-09-03T07:12:43.116Z,16.40
2017-09-03T07:15:10.608Z,17.20
2017-09-03T07:17:38.083Z,17.90
2017-09-03T07:20:05.579Z,15.83
2017-09-03T07:22:33.055Z,16.57
2017-09-03T07:25:00.559Z,16.40
2017-09-03T07:27:28.052Z,16.17
2017-09-03T07:29:55.535Z,17.60
2017-09-03T07:32:23.028Z,17.30
2017-09-03T07:34:50.507Z,17.20
2017-09-03T07:37:17.999Z,18.10
2017-09-03T07:39:46.058Z,17.90
2017-09-03T07:42:13.563Z,17.60
2017-09-03T07:44:41.040Z,17.40
2017-09-03T07:47:08.512Z,17.80
2017-09-03T07:49:36.024Z,17.33
2017-09-03T07:52:03.500Z,17.67
2017-09-03T07:54:30.989Z,20.10
2017-09-03T07:56:58.476Z,18.00
2017-09-03T07:59:27.020Z,20.23
2017-09-03T08:01:54.495Z,22.40
2017-09-03T08:04:21.971Z,20.50
2017-09-03T08:06:49.504Z,20.20
2017-09-03T08:09:16.992Z,17.03
2017-09-03T08:11:44.487Z,17.13
2017-09-03T08:14:11.965Z,16.03
2017-09-03T08:16:39.505Z,16.30
2017-09-03T08:19:06.972Z,18.57
2017-09-03T08:21:34.460Z,18.53
2017-09-03T08:24:01.955Z,30.47
2017-09-03T08:26:29.440Z,22.23
2017-09-03T08:28:56.928Z,18.50
2017-09-03T08:31:24.476Z,18.50
2017-09-03T08:33:52.140Z,19.80
2017-09-03T08:36:19.619Z,18.30
2017-09-03T08:38:47.103Z,21.57
2017-09-03T08:41:14.604Z,22.20
2017-09-03T08:43:42.082Z,20.97
2017-09-03T08:46:09.575Z,21.83
2017-09-03T08:48:37.046Z,22.10
2017-09-03T08:51:04.559Z,20.70
2017-09-03T08:53:32.142Z,20.40
2017-09-03T08:55:59.626Z,19.00
2017-09-03T08:58:27.127Z,22.03
2017-09-03T09:00:54.603Z,21.60
2017-09-03T09:03:22.103Z,31.40
2017-09-03T09:05:49.571Z,21.27
2017-09-03T09:08:17.108Z,35.03
2017-09-03T09:10:44.580Z,22.37
2017-09-03T09:13:12.056Z,20.17
2017-09-03T09:15:39.548Z,20.70
2017-09-03T09:18:07.092Z,23.73
2017-09-03T09:20:34.606Z,20.13
2017-09-03T09:23:02.092Z,21.30
2017-09-03T09:25:29.633Z,20.90
2017-09-03T09:27:57.128Z,20.80
2017-09-03T09:30:25.444Z,21.70
2017-09-03T09:32:52.939Z,21.40
2017-09-03T09:35:20.433Z,24.53
2017-09-03T09:37:47.980Z,24.93
2017-09-03T09:40:15.459Z,18.90
2017-09-03T09:42:43.000Z,24.00
2017-09-03T09:45:10.477Z,26.10
2017-09-03T09:47:37.970Z,21.63
2017-09-03T09:50:05.472Z,22.47
2017-09-03T09:52:32.966Z,20.90
2017-09-03T09:55:00.456Z,19.57
2017-09-03T09:57:27.944Z,24.00
2017-09-03T09:59:55.484Z,23.90
2017-09-03T10:02:23.039Z,72.33
2017-09-03T10:04:50.547Z,19.33
2017-09-03T10:07:18.028Z,20.13
2017-09-03T10:09:45.553Z,19.80
2017-09-03T10:12:13.040Z,17.33
2017-09-03T10:14:40.525Z,16.97
2017-09-03T10:17:08.057Z,14.53
2017-09-03T10:19:35.560Z,12.43
2017-09-03T10:22:03.055Z,14.33
2017-09-03T10:24:30.533Z,11.93
2017-09-03T10:26:58.016Z,10.43
2017-09-03T10:29:25.518Z,12.20
2017-09-03T10:31:53.007Z,10.90
2017-09-03T10:34:20.501Z,8.80
2017-09-03T10:36:47.980Z,8.73
2017-09-03T10:39:15.554Z,9.67
2017-09-03T10:41:43.032Z,5.90
2017-09-03T10:44:10.503Z,5.10
2017-09-03T10:46:38.005Z,2.93
2017-09-03T10:49:05.589Z,66.97
2017-09-03T10:51:33.078Z,7.00
2017-09-03T10:54:00.548Z,4.20
2017-09-03T10:56:28.063Z,5.50
2017-09-03T10:58:55.621Z,6.20
2017-09-03T11:01:23.107Z,6.83
2017-09-03T11:03:50.608Z,9.87
2017-09-03T11:06:18.116Z,11.20
2017-09-03T11:08:45.616Z,13.77
2017-09-03T11:11:13.088Z,13.13
2017-09-03T11:13:40.601Z,9.80
2017-09-03T11:16:08.083Z,14.77
2017-09-03T11:18:35.562Z,16.17
2017-09-03T11:21:03.044Z,11.97
2017-09-03T11:23:30.524Z,16.80
2017-09-03T11:25:58.021Z,10.63
2017-09-03T11:28:25.499Z,13.40
2017-09-03T11:30:53.035Z,10.30
2017-09-03T11:33:20.512Z,10.97
2017-09-03T11:35:48.199Z,10.47
2017-09-03T11:38:15.706Z,13.30
2017-09-03T11:40:43.180Z,9.90
2017-09-03T11:43:10.667Z,8.07
2017-09-03T11:45:38.140Z,9.27
2017-09-03T11:48:05.628Z,11.93
2017-09-03T11:50:33.100Z,8.80
2017-09-03T11:53:00.639Z,9.57
2017-09-03T11:55:28.111Z,7.50
2017-09-03T11:57:55.601Z,7.00
2017-09-03T12:00:23.109Z,6.77
2017-09-03T12:02:50.585Z,6.20
2017-09-03T12:05:18.071Z,5.60
2017-09-03T12:07:45.548Z,5.97
2017-09-03T12:10:13.058Z,5.87
2017-09-03T12:12:40.533Z,6.17
2017-09-03T12:15:08.004Z,5.50
2017-09-03T12:17:35.500Z,5.27
2017-09-03T12:20:02.999Z,5.60
2017-09-03T12:22:30.496Z,13.77
2017-09-03T12:24:57.971Z,6.47
2017-09-03T12:27:25.488Z,20.10
2017-09-03T12:29:52.964Z,3.90
2017-09-03T12:32:20.452Z,4.47
2017-09-03T12:34:47.948Z,4.10
2017-09-03T12:37:15.430Z,5.43
2017-09-03T12:39:42.937Z,6.47
2017-09-03T12:42:10.406Z,5.10
2017-09-03T12:44:37.919Z,4.77
2017-09-03T12:47:05.390Z,4.10
2017-09-03T12:49:32.871Z,4.00
2017-09-03T12:52:00.363Z,3.40
2017-09-03T12:54:27.853Z,6.80
2017-09-03T12:56:55.347Z,3.93
2017-09-03T12:59:22.820Z,4.63
2017-09-03T13:01:50.295Z,3.50
2017-09-03T13:04:17.808Z,5.17
2017-09-03T13:06:45.282Z,4.77
2017-09-03T13:09:12.780Z,3.97
2017-09-03T13:11:40.252Z,4.17
2017-09-03T13:14:07.723Z,4.50
2017-09-03T13:16:35.217Z,4.80
2017-09-03T13:19:02.688Z,3.73
2017-09-03T13:21:30.396Z,4.30
2017-09-03T13:23:57.867Z,4.57
2017-09-03T13:26:25.367Z,4.20
2017-09-03T13:28:52.860Z,3.70
2017-09-03T13:31:20.332Z,4.63
2017-09-03T13:33:47.908Z,4.57
2017-09-03T13:36:15.388Z,4.57
2017-09-03T13:38:42.868Z,4.37
2017-09-03T13:41:10.359Z,4.57
2017-09-03T13:43:37.853Z,4.13
2017-09-03T13:46:05.361Z,3.87
2017-09-03T13:48:32.828Z,3.37
2017-09-03T13:51:00.313Z,3.53
2017-09-03T13:53:27.809Z,4.23
2017-09-03T13:55:55.283Z,4.30
2017-09-03T13:58:23.538Z,4.03
2017-09-03T14:00:51.943Z,3.93
2017-09-03T14:03:19.427Z,6.67
2017-09-03T14:05:46.911Z,3.63
2017-09-03T14:08:14.384Z,3.67
2017-09-03T14:10:41.876Z,3.70
2017-09-03T14:13:09.417Z,4.27
2017-09-03T14:15:36.912Z,3.60
2017-09-03T14:18:04.401Z,3.53
2017-09-03T14:20:31.921Z,3.40
2017-09-03T14:22:59.424Z,3.30
2017-09-03T14:25:26.971Z,3.70
2017-09-03T14:27:54.451Z,3.40
2017-09-03T14:30:21.941Z,3.60
2017-09-03T14:32:49.417Z,3.73
2017-09-03T14:35:16.907Z,2.97
2017-09-03T14:37:44.464Z,2.73
2017-09-03T14:40:11.935Z,3.27
2017-09-03T14:42:39.453Z,3.60
2017-09-03T14:45:07.852Z,3.10
2017-09-03T14:47:35.339Z,3.27
2017-09-03T14:50:02.895Z,3.13
2017-09-03T14:52:30.444Z,3.97
2017-09-03T14:54:57.940Z,11.03
2017-09-03T14:57:25.425Z,21.20
2017-09-03T14:59:52.915Z,3.57
2017-09-03T15:02:20.386Z,3.13
2017-09-03T15:04:47.899Z,2.60
2017-09-03T15:07:15.396Z,21.17
2017-09-03T15:09:42.863Z,6.03
2017-09-03T15:12:10.359Z,5.90
2017-09-03T15:14:37.872Z,4.07
2017-09-03T15:17:05.339Z,3.40
2017-09-03T15:19:32.836Z,6.40
2017-09-03T15:22:00.315Z,8.23
2017-09-03T15:24:27.815Z,3.13
2017-09-03T15:26:55.360Z,5.70
2017-09-03T15:29:22.841Z,2.80
2017-09-03T15:31:50.324Z,3.20
2017-09-03T15:34:17.812Z,4.67
2017-09-03T15:36:45.303Z,2.90
2017-09-03T15:39:12.769Z,2.60
2017-09-03T15:41:40.236Z,3.10
2017-09-03T15:44:07.734Z,4.17
2017-09-03T15:46:35.235Z,4.20
2017-09-03T15:49:02.788Z,3.20
2017-09-03T15:51:30.280Z,3.33
2017-09-03T15:53:57.768Z,3.07
2017-09-03T15:56:25.256Z,3.27
2017-09-03T15:58:52.732Z,6.97
2017-09-03T16:01:20.243Z,3.73
2017-09-03T16:03:47.722Z,3.33
2017-09-03T16:06:15.205Z,4.30
2017-09-03T16:08:42.689Z,3.00
2017-09-03T16:11:10.183Z,3.70
2017-09-03T16:13:38.668Z,3.47
2017-09-03T16:16:06.159Z,3.67
2017-09-03T16:18:33.636Z,3.00
2017-09-03T16:21:01.115Z,3.57
2017-09-03T16:23:28.608Z,3.90
2017-09-03T16:25:56.107Z,3.70
2017-09-03T16:28:23.599Z,3.60
2017-09-03T16:30:51.083Z,3.57
2017-09-03T16:33:18.571Z,2.87
2017-09-03T16:35:46.050Z,3.60
2017-09-03T16:38:13.599Z,3.03
2017-09-03T16:40:41.093Z,3.53
2017-09-03T16:43:08.578Z,2.70
2017-09-03T16:45:36.094Z,1.97
2017-09-03T16:48:03.579Z,2.50
2017-09-03T16:50:31.079Z,2.37
2017-09-03T16:52:58.545Z,3.03
2017-09-03T16:55:26.025Z,2.50
2017-09-03T16:57:53.505Z,1.90
2017-09-03T17:00:21.813Z,1.80
2017-09-03T17:02:49.373Z,2.57
2017-09-03T17:05:16.888Z,2.20
2017-09-03T17:07:44.435Z,2.40
2017-09-03T17:10:11.967Z,1.93
2017-09-03T17:12:39.472Z,2.00
2017-09-03T17:15:06.968Z,1.60
2017-09-03T17:17:34.457Z,1.90
2017-09-03T17:20:02.421Z,2.37
2017-09-03T17:22:29.916Z,2.37
2017-09-03T17:24:57.387Z,2.33
2017-09-03T17:27:24.932Z,2.90
2017-09-03T17:30:03.188Z,2.47
2017-09-03T17:32:41.584Z,2.20
2017-09-03T17:35:12.616Z,3.30
2017-09-03T17:37:43.807Z,3.00
2017-09-03T17:40:11.280Z,2.50
2017-09-03T17:42:39.665Z,2.40
2017-09-03T17:45:07.415Z,2.90
2017-09-03T17:47:34.908Z,2.77
2017-09-03T17:50:02.400Z,2.70
2017-09-03T17:52:30.696Z,2.57
2017-09-03T17:54:58.946Z,2.93
2017-09-03T17:57:26.437Z,3.30
2017-09-03T17:59:53.905Z,4.30
2017-09-03T18:02:21.387Z,3.23
2017-09-03T18:05:04.562Z,3.93
2017-09-03T18:07:32.048Z,3.40
2017-09-03T18:09:59.539Z,3.20
2017-09-03T18:12:27.013Z,2.80
2017-09-03T18:14:54.495Z,3.40
2017-09-03T18:17:22.005Z,3.27
2017-09-03T18:19:52.498Z,3.80
2017-09-03T18:22:20.089Z,3.30
2017-09-03T18:24:47.572Z,3.27
2017-09-03T18:27:15.087Z,3.73
2017-09-03T18:29:46.539Z,3.07
2017-09-03T18:32:14.019Z,4.50
2017-09-03T18:34:41.536Z,4.60
2017-09-03T18:37:09.059Z,58.50
2017-09-03T18:42:41.268Z,3.70
2017-09-03T18:45:08.774Z,3.37
2017-09-03T18:47:36.248Z,3.00
2017-09-03T18:50:08.352Z,3.40
2017-09-03T18:52:40.394Z,3.80
2017-09-03T18:55:07.904Z,3.50
2017-09-03T18:57:41.951Z,3.37
2017-09-03T19:00:10.348Z,4.07
2017-09-03T19:02:47.778Z,4.23
2017-09-03T19:05:15.934Z,3.13
2017-09-03T19:07:43.408Z,3.90
2017-09-03T19:10:10.902Z,4.47
2017-09-03T19:12:38.392Z,4.50
2017-09-03T19:15:05.879Z,3.10
2017-09-03T19:17:33.402Z,5.63
2017-09-03T19:20:00.896Z,11.63
2017-09-03T19:22:28.376Z,3.97
2017-09-03T19:24:56.628Z,3.90
2017-09-03T19:27:24.109Z,6.53
2017-09-03T19:29:51.618Z,2.87
2017-09-03T19:32:19.099Z,4.30
2017-09-03T19:34:46.613Z,3.03
2017-09-03T19:37:16.604Z,3.60
2017-09-03T19:39:44.861Z,2.83
2017-09-03T19:42:12.375Z,2.67
2017-09-03T19:44:39.861Z,2.93
2017-09-03T19:47:07.343Z,3.43
2017-09-03T19:49:35.623Z,4.37
2017-09-03T19:52:03.127Z,4.87
2017-09-03T19:54:30.629Z,3.90
2017-09-03T19:56:58.096Z,4.10
2017-09-03T19:59:25.692Z,3.33
2017-09-03T20:01:53.183Z,3.17
2017-09-03T20:04:20.680Z,3.13
2017-09-03T20:06:48.147Z,3.10
2017-09-03T20:09:15.664Z,3.73
2017-09-03T20:11:43.269Z,3.30
2017-09-03T20:14:10.785Z,3.80
2017-09-03T20:16:38.285Z,2.70
2017-09-03T20:19:06.039Z,3.60
2017-09-03T20:21:33.539Z,3.20
2017-09-03T20:24:01.015Z,3.70
2017-09-03T20:26:28.543Z,3.77
2017-09-03T20:28:56.016Z,4.73
2017-09-03T20:31:23.501Z,4.00
2017-09-03T20:33:50.987Z,3.67
2017-09-03T20:36:18.467Z,3.47
2017-09-03T20:38:45.959Z,3.90
2017-09-03T20:41:13.433Z,3.23
2017-09-03T20:43:40.907Z,4.57
2017-09-03T20:46:08.409Z,4.07
2017-09-03T20:48:35.895Z,3.90
2017-09-03T20:51:03.399Z,3.60
2017-09-03T20:53:31.120Z,4.27
2017-09-03T20:55:58.587Z,3.67
2017-09-03T20:58:26.091Z,7.23
2017-09-03T21:00:53.562Z,4.50
2017-09-03T21:03:21.064Z,7.53
2017-09-03T21:05:48.536Z,4.03
2017-09-03T21:08:16.003Z,5.10
2017-09-03T21:10:43.498Z,4.63
2017-09-03T21:13:10.975Z,4.33
2017-09-03T21:15:38.484Z,4.70
2017-09-03T21:18:05.955Z,4.40
2017-09-03T21:20:33.467Z,4.37
2017-09-03T21:23:00.975Z,4.20
2017-09-03T21:25:28.449Z,4.40
2017-09-03T21:27:56.067Z,4.37
2017-09-03T21:30:23.540Z,4.63
2017-09-03T21:32:51.016Z,4.67
2017-09-03T21:35:18.511Z,5.70
2017-09-03T21:37:46.021Z,4.10
2017-09-03T21:40:13.513Z,4.67
2017-09-03T21:42:40.993Z,4.50
2017-09-03T21:45:08.461Z,5.03
2017-09-03T21:47:35.965Z,4.30
2017-09-03T21:50:03.438Z,4.60
2017-09-03T21:52:30.930Z,5.30
2017-09-03T21:54:58.423Z,5.77
2017-09-03T21:57:25.914Z,4.17
2017-09-03T21:59:53.432Z,4.47
2017-09-03T22:02:20.902Z,5.20
2017-09-03T22:04:48.416Z,5.13
2017-09-03T22:07:15.891Z,4.40
2017-09-03T22:09:43.408Z,4.57
2017-09-03T22:12:10.927Z,4.57
2017-09-03T22:14:38.418Z,4.63
2017-09-03T22:17:05.913Z,4.77
2017-09-03T22:19:33.397Z,4.10
2017-09-03T22:22:00.892Z,5.70
2017-09-03T22:24:28.392Z,3.90
2017-09-03T22:26:55.863Z,4.13
2017-09-03T22:29:23.360Z,4.10
2017-09-03T22:31:50.938Z,5.90
2017-09-03T22:34:18.482Z,6.03
2017-09-03T22:36:45.964Z,9.80
2017-09-03T22:39:13.438Z,6.57
2017-09-03T22:41:40.960Z,5.23
2017-09-03T22:44:08.441Z,4.30
2017-09-03T22:46:35.923Z,4.40
2017-09-03T22:49:03.403Z,4.03
2017-09-03T22:51:30.875Z,3.90
2017-09-03T22:53:58.370Z,4.10
2017-09-03T22:56:25.839Z,3.80
2017-09-03T22:58:53.309Z,4.23
2017-09-03T23:01:20.797Z,4.50
2017-09-03T23:03:48.275Z,4.50
2017-09-03T23:06:16.036Z,4.53
2017-09-03T23:08:43.503Z,4.40
2017-09-03T23:11:10.972Z,4.20
2017-09-03T23:13:38.500Z,4.73
2017-09-03T23:16:05.971Z,4.30
2017-09-03T23:18:33.459Z,5.10
2017-09-03T23:21:00.927Z,4.40
2017-09-03T23:23:28.391Z,4.70
2017-09-03T23:25:55.880Z,4.37
2017-09-03T23:28:23.348Z,4.40
2017-09-03T23:30:50.908Z,4.60
2017-09-03T23:33:18.380Z,4.77
2017-09-03T23:35:45.854Z,5.37
2017-09-03T23:38:13.375Z,5.03
2017-09-03T23:40:40.859Z,4.80
2017-09-03T23:43:08.357Z,4.70
2017-09-03T23:45:35.855Z,5.90
2017-09-03T23:48:03.333Z,8.20
2017-09-03T23:50:30.820Z,5.93
2017-09-03T23:52:58.287Z,5.97
2017-09-03T23:55:25.775Z,5.27
2017-09-03T23:57:53.352Z,5.20
